Greenleaf, Kansas
Current Conditions -  °F | °C
As of 6:35 PM on Sunday 21 Dec 2014 (Local Time) from KMYZ Reporting Station
Light Rain Light Rain  
Wind Chill: 36°   Ceiling: 500
Heat Index: 43°   Visibility: 3mi
Dew Point: 41°   Wind: 13mph
Humidity: 93%   Direction: 170°S
Pressure: 29.7"   Gusts: 18mph
Location:  39.73°N, 96.98°W
Report Text: KMYZ 220035Z AUTO 17011G16KT 3SM -RA OVC005 06/05 A2970 RMK AO2 P0001
Loading
Personal Weather Stations






























Interactive Weather Map New forecast layout! Learn more

10-Day Weather Forecast

Advertisements
Track Severe Weather on mobile